sensor_id;sensor_type;location;lat;lon;timestamp;temperature;humidity
39371;DHT22;25099;51.946;4.838;2023-07-30T00:00:20;18.60;99.90
39371;DHT22;25099;51.946;4.838;2023-07-30T00:02:46;18.30;99.90
39371;DHT22;25099;51.946;4.838;2023-07-30T00:05:11;18.50;99.90
39371;DHT22;25099;51.946;4.838;2023-07-30T00:07:37;18.30;99.90
39371;DHT22;25099;51.946;4.838;2023-07-30T00:10:03;18.30;99.90
39371;DHT22;25099;51.946;4.838;2023-07-30T00:12:28;18.20;99.90
39371;DHT22;25099;51.946;4.838;2023-07-30T00:14:54;18.30;99.90
39371;DHT22;25099;51.946;4.838;2023-07-30T00:17:20;18.20;99.90
39371;DHT22;25099;51.946;4.838;2023-07-30T00:19:45;18.20;99.90
39371;DHT22;25099;51.946;4.838;2023-07-30T00:22:11;18.10;99.90
39371;DHT22;25099;51.946;4.838;2023-07-30T00:24:36;18.10;99.90
39371;DHT22;25099;51.946;4.838;2023-07-30T00:27:02;18.20;99.90
39371;DHT22;25099;51.946;4.838;2023-07-30T00:29:28;18.10;99.90
39371;DHT22;25099;51.946;4.838;2023-07-30T00:31:53;18.10;99.90
39371;DHT22;25099;51.946;4.838;2023-07-30T00:34:19;18.20;99.90
39371;DHT22;25099;51.946;4.838;2023-07-30T00:36:44;18.00;99.90
39371;DHT22;25099;51.946;4.838;2023-07-30T00:39:10;17.90;99.90
39371;DHT22;25099;51.946;4.838;2023-07-30T00:41:36;17.80;99.90
39371;DHT22;25099;51.946;4.838;2023-07-30T00:44:02;17.80;99.90
39371;DHT22;25099;51.946;4.838;2023-07-30T00:46:30;17.80;99.90
39371;DHT22;25099;51.946;4.838;2023-07-30T00:48:56;17.80;99.90
39371;DHT22;25099;51.946;4.838;2023-07-30T00:51:22;17.80;99.90
39371;DHT22;25099;51.946;4.838;2023-07-30T00:53:49;17.70;99.90
39371;DHT22;25099;51.946;4.838;2023-07-30T00:56:23;17.60;99.90
39371;DHT22;25099;51.946;4.838;2023-07-30T00:58:49;17.80;99.90
39371;DHT22;25099;51.946;4.838;2023-07-30T01:01:15;18.20;99.90
39371;DHT22;25099;51.946;4.838;2023-07-30T01:03:41;18.50;99.90
39371;DHT22;25099;51.946;4.838;2023-07-30T01:06:18;17.70;99.90
39371;DHT22;25099;51.946;4.838;2023-07-30T01:08:46;17.70;99.90
39371;DHT22;25099;51.946;4.838;2023-07-30T01:11:13;18.50;99.90
39371;DHT22;25099;51.946;4.838;2023-07-30T01:13:40;17.80;99.90
39371;DHT22;25099;51.946;4.838;2023-07-30T01:16:07;18.50;99.90
39371;DHT22;25099;51.946;4.838;2023-07-30T01:18:33;17.80;99.90
39371;DHT22;25099;51.946;4.838;2023-07-30T01:20:59;18.10;99.90
39371;DHT22;25099;51.946;4.838;2023-07-30T01:23:25;18.00;99.90
39371;DHT22;25099;51.946;4.838;2023-07-30T01:26:19;17.80;99.90
39371;DHT22;25099;51.946;4.838;2023-07-30T01:28:49;18.50;99.90
39371;DHT22;25099;51.946;4.838;2023-07-30T01:31:16;17.80;99.90
39371;DHT22;25099;51.946;4.838;2023-07-30T01:33:46;18.00;99.90
39371;DHT22;25099;51.946;4.838;2023-07-30T01:36:15;17.70;99.90
39371;DHT22;25099;51.946;4.838;2023-07-30T01:38:42;17.70;99.90
39371;DHT22;25099;51.946;4.838;2023-07-30T01:41:09;18.30;99.90
39371;DHT22;25099;51.946;4.838;2023-07-30T01:43:35;17.80;99.90
39371;DHT22;25099;51.946;4.838;2023-07-30T01:46:00;17.90;99.90
39371;DHT22;25099;51.946;4.838;2023-07-30T01:48:26;18.40;99.90
39371;DHT22;25099;51.946;4.838;2023-07-30T01:50:52;17.80;99.90
39371;DHT22;25099;51.946;4.838;2023-07-30T01:53:18;17.70;99.90
39371;DHT22;25099;51.946;4.838;2023-07-30T01:55:43;17.70;99.90
39371;DHT22;25099;51.946;4.838;2023-07-30T01:58:14;17.70;99.90
39371;DHT22;25099;51.946;4.838;2023-07-30T02:00:40;17.60;99.90
39371;DHT22;25099;51.946;4.838;2023-07-30T02:03:06;17.80;99.90
39371;DHT22;25099;51.946;4.838;2023-07-30T02:05:32;17.60;99.90
39371;DHT22;25099;51.946;4.838;2023-07-30T02:07:58;17.70;99.90
39371;DHT22;25099;51.946;4.838;2023-07-30T02:10:26;18.10;99.90
39371;DHT22;25099;51.946;4.838;2023-07-30T02:12:52;17.60;99.90
39371;DHT22;25099;51.946;4.838;2023-07-30T02:15:17;17.50;99.90
39371;DHT22;25099;51.946;4.838;2023-07-30T02:17:43;17.50;99.90
39371;DHT22;25099;51.946;4.838;2023-07-30T02:20:09;17.50;99.90
39371;DHT22;25099;51.946;4.838;2023-07-30T02:22:37;17.60;99.90
39371;DHT22;25099;51.946;4.838;2023-07-30T02:25:06;17.40;99.90
39371;DHT22;25099;51.946;4.838;2023-07-30T02:27:31;17.50;99.90
39371;DHT22;25099;51.946;4.838;2023-07-30T02:29:57;18.00;99.90
39371;DHT22;25099;51.946;4.838;2023-07-30T02:32:23;17.50;99.90
39371;DHT22;25099;51.946;4.838;2023-07-30T02:34:48;17.80;99.90
39371;DHT22;25099;51.946;4.838;2023-07-30T02:37:14;17.70;99.90
39371;DHT22;25099;51.946;4.838;2023-07-30T02:39:39;17.40;99.90
39371;DHT22;25099;51.946;4.838;2023-07-30T02:42:06;17.60;99.90
39371;DHT22;25099;51.946;4.838;2023-07-30T02:44:34;17.50;99.90
39371;DHT22;25099;51.946;4.838;2023-07-30T02:47:00;17.50;99.90
39371;DHT22;25099;51.946;4.838;2023-07-30T02:49:26;17.40;99.90
39371;DHT22;25099;51.946;4.838;2023-07-30T02:51:51;17.40;99.90
39371;DHT22;25099;51.946;4.838;2023-07-30T02:54:17;17.90;99.90
39371;DHT22;25099;51.946;4.838;2023-07-30T02:56:45;17.50;99.90
39371;DHT22;25099;51.946;4.838;2023-07-30T02:59:10;17.50;99.90
39371;DHT22;25099;51.946;4.838;2023-07-30T03:01:36;17.30;99.90
39371;DHT22;25099;51.946;4.838;2023-07-30T03:04:02;17.50;99.90
39371;DHT22;25099;51.946;4.838;2023-07-30T03:06:28;17.30;99.90
39371;DHT22;25099;51.946;4.838;2023-07-30T03:08:54;17.20;99.90
39371;DHT22;25099;51.946;4.838;2023-07-30T03:11:19;17.30;99.90
39371;DHT22;25099;51.946;4.838;2023-07-30T03:13:45;17.20;99.90
39371;DHT22;25099;51.946;4.838;2023-07-30T03:16:10;17.30;99.90
39371;DHT22;25099;51.946;4.838;2023-07-30T03:18:36;17.30;99.90
39371;DHT22;25099;51.946;4.838;2023-07-30T03:21:02;17.20;99.90
39371;DHT22;25099;51.946;4.838;2023-07-30T03:23:28;17.30;99.90
39371;DHT22;25099;51.946;4.838;2023-07-30T03:25:54;17.20;99.90
39371;DHT22;25099;51.946;4.838;2023-07-30T03:28:20;17.20;99.90
39371;DHT22;25099;51.946;4.838;2023-07-30T03:30:45;17.10;99.90
39371;DHT22;25099;51.946;4.838;2023-07-30T03:33:11;17.10;99.90
39371;DHT22;25099;51.946;4.838;2023-07-30T03:35:36;17.10;99.90
39371;DHT22;25099;51.946;4.838;2023-07-30T03:38:03;17.20;99.90
39371;DHT22;25099;51.946;4.838;2023-07-30T03:40:29;17.10;99.90
39371;DHT22;25099;51.946;4.838;2023-07-30T03:42:54;17.10;99.90
39371;DHT22;25099;51.946;4.838;2023-07-30T03:45:20;17.30;99.90
39371;DHT22;25099;51.946;4.838;2023-07-30T03:47:45;17.00;99.90
39371;DHT22;25099;51.946;4.838;2023-07-30T03:50:11;17.00;99.90
39371;DHT22;25099;51.946;4.838;2023-07-30T03:52:37;17.00;99.90
39371;DHT22;25099;51.946;4.838;2023-07-30T03:55:03;17.50;99.90
39371;DHT22;25099;51.946;4.838;2023-07-30T03:57:28;17.10;99.90
39371;DHT22;25099;51.946;4.838;2023-07-30T03:59:54;17.10;99.90
39371;DHT22;25099;51.946;4.838;2023-07-30T04:02:19;17.60;99.90
39371;DHT22;25099;51.946;4.838;2023-07-30T04:04:46;17.00;99.90
39371;DHT22;25099;51.946;4.838;2023-07-30T04:07:13;17.00;99.90
39371;DHT22;25099;51.946;4.838;2023-07-30T04:09:39;17.00;99.90
39371;DHT22;25099;51.946;4.838;2023-07-30T04:12:05;17.00;99.90
39371;DHT22;25099;51.946;4.838;2023-07-30T04:14:31;17.00;99.90
39371;DHT22;25099;51.946;4.838;2023-07-30T04:16:56;17.00;99.90
39371;DHT22;25099;51.946;4.838;2023-07-30T04:19:22;17.00;99.90
39371;DHT22;25099;51.946;4.838;2023-07-30T04:21:47;17.00;99.90
39371;DHT22;25099;51.946;4.838;2023-07-30T04:24:13;17.00;99.90
39371;DHT22;25099;51.946;4.838;2023-07-30T04:26:38;17.00;99.90
39371;DHT22;25099;51.946;4.838;2023-07-30T04:29:04;17.30;99.90
39371;DHT22;25099;51.946;4.838;2023-07-30T04:31:30;17.00;99.90
39371;DHT22;25099;51.946;4.838;2023-07-30T04:33:57;17.00;99.90
39371;DHT22;25099;51.946;4.838;2023-07-30T04:36:23;17.00;99.90
39371;DHT22;25099;51.946;4.838;2023-07-30T04:38:49;17.00;99.90
39371;DHT22;25099;51.946;4.838;2023-07-30T04:41:14;17.00;99.90
39371;DHT22;25099;51.946;4.838;2023-07-30T04:43:40;17.10;99.90
39371;DHT22;25099;51.946;4.838;2023-07-30T04:46:05;17.00;99.90
39371;DHT22;25099;51.946;4.838;2023-07-30T04:48:31;17.10;99.90
39371;DHT22;25099;51.946;4.838;2023-07-30T04:50:56;17.10;99.90
39371;DHT22;25099;51.946;4.838;2023-07-30T04:53:22;17.10;99.90
39371;DHT22;25099;51.946;4.838;2023-07-30T04:55:47;17.00;99.90
39371;DHT22;25099;51.946;4.838;2023-07-30T04:58:13;17.00;99.90
39371;DHT22;25099;51.946;4.838;2023-07-30T05:00:39;17.00;99.90
39371;DHT22;25099;51.946;4.838;2023-07-30T05:03:04;17.00;99.90
39371;DHT22;25099;51.946;4.838;2023-07-30T05:05:30;17.10;99.90
39371;DHT22;25099;51.946;4.838;2023-07-30T05:07:55;17.00;99.90
39371;DHT22;25099;51.946;4.838;2023-07-30T05:10:21;17.00;99.90
39371;DHT22;25099;51.946;4.838;2023-07-30T05:12:47;17.00;99.90
39371;DHT22;25099;51.946;4.838;2023-07-30T05:15:12;17.00;99.90
39371;DHT22;25099;51.946;4.838;2023-07-30T05:17:38;17.00;99.90
39371;DHT22;25099;51.946;4.838;2023-07-30T05:20:04;17.10;99.90
39371;DHT22;25099;51.946;4.838;2023-07-30T05:22:30;17.10;99.90
39371;DHT22;25099;51.946;4.838;2023-07-30T05:24:55;17.10;99.90
39371;DHT22;25099;51.946;4.838;2023-07-30T05:27:21;17.10;99.90
39371;DHT22;25099;51.946;4.838;2023-07-30T05:29:48;17.20;99.90
39371;DHT22;25099;51.946;4.838;2023-07-30T05:32:15;17.10;99.90
39371;DHT22;25099;51.946;4.838;2023-07-30T05:34:40;17.00;99.90
39371;DHT22;25099;51.946;4.838;2023-07-30T05:37:06;17.00;99.90
39371;DHT22;25099;51.946;4.838;2023-07-30T05:39:31;17.00;99.90
39371;DHT22;25099;51.946;4.838;2023-07-30T05:41:57;17.10;99.90
39371;DHT22;25099;51.946;4.838;2023-07-30T05:44:22;17.10;99.90
39371;DHT22;25099;51.946;4.838;2023-07-30T05:46:48;17.10;99.90
39371;DHT22;25099;51.946;4.838;2023-07-30T05:49:14;17.00;99.90
39371;DHT22;25099;51.946;4.838;2023-07-30T05:51:40;17.10;99.90
39371;DHT22;25099;51.946;4.838;2023-07-30T05:54:05;17.10;99.90
39371;DHT22;25099;51.946;4.838;2023-07-30T05:56:31;17.10;99.90
39371;DHT22;25099;51.946;4.838;2023-07-30T05:58:56;17.20;99.90
39371;DHT22;25099;51.946;4.838;2023-07-30T06:01:22;17.20;99.90
39371;DHT22;25099;51.946;4.838;2023-07-30T06:03:48;17.20;99.90
39371;DHT22;25099;51.946;4.838;2023-07-30T06:06:14;17.10;99.90
39371;DHT22;25099;51.946;4.838;2023-07-30T06:08:40;17.10;99.90
39371;DHT22;25099;51.946;4.838;2023-07-30T06:11:05;17.70;99.90
39371;DHT22;25099;51.946;4.838;2023-07-30T06:13:31;17.10;99.90
39371;DHT22;25099;51.946;4.838;2023-07-30T06:15:56;17.10;99.90
39371;DHT22;25099;51.946;4.838;2023-07-30T06:18:22;17.20;99.90
39371;DHT22;25099;51.946;4.838;2023-07-30T06:20:48;17.20;99.90
39371;DHT22;25099;51.946;4.838;2023-07-30T06:23:13;17.20;99.90
39371;DHT22;25099;51.946;4.838;2023-07-30T06:25:39;17.20;99.90
39371;DHT22;25099;51.946;4.838;2023-07-30T06:28:05;17.20;99.90
39371;DHT22;25099;51.946;4.838;2023-07-30T06:30:34;17.30;99.90
39371;DHT22;25099;51.946;4.838;2023-07-30T06:32:59;17.20;99.90
39371;DHT22;25099;51.946;4.838;2023-07-30T06:35:25;17.30;99.90
39371;DHT22;25099;51.946;4.838;2023-07-30T06:37:52;17.30;99.90
39371;DHT22;25099;51.946;4.838;2023-07-30T06:40:17;17.30;99.90
39371;DHT22;25099;51.946;4.838;2023-07-30T06:42:43;17.30;99.90
39371;DHT22;25099;51.946;4.838;2023-07-30T06:45:09;17.30;99.90
39371;DHT22;25099;51.946;4.838;2023-07-30T06:47:35;17.20;99.90
39371;DHT22;25099;51.946;4.838;2023-07-30T06:50:00;17.30;99.90
39371;DHT22;25099;51.946;4.838;2023-07-30T06:52:26;17.30;99.90
39371;DHT22;25099;51.946;4.838;2023-07-30T06:54:51;17.30;99.90
39371;DHT22;25099;51.946;4.838;2023-07-30T06:57:17;17.30;99.90
39371;DHT22;25099;51.946;4.838;2023-07-30T06:59:43;17.30;99.90
39371;DHT22;25099;51.946;4.838;2023-07-30T07:02:08;17.50;99.90
39371;DHT22;25099;51.946;4.838;2023-07-30T07:04:34;17.40;99.90
39371;DHT22;25099;51.946;4.838;2023-07-30T07:06:59;17.30;99.90
39371;DHT22;25099;51.946;4.838;2023-07-30T07:09:28;18.00;99.90
39371;DHT22;25099;51.946;4.838;2023-07-30T07:11:54;17.30;99.90
39371;DHT22;25099;51.946;4.838;2023-07-30T07:14:19;17.40;99.90
39371;DHT22;25099;51.946;4.838;2023-07-30T07:16:45;17.30;99.90
39371;DHT22;25099;51.946;4.838;2023-07-30T07:19:10;17.40;99.90
39371;DHT22;25099;51.946;4.838;2023-07-30T07:21:36;17.40;99.90
39371;DHT22;25099;51.946;4.838;2023-07-30T07:24:02;17.90;99.90
39371;DHT22;25099;51.946;4.838;2023-07-30T07:26:27;17.40;99.90
39371;DHT22;25099;51.946;4.838;2023-07-30T07:28:55;17.40;99.90
39371;DHT22;25099;51.946;4.838;2023-07-30T07:31:21;17.50;99.90
39371;DHT22;25099;51.946;4.838;2023-07-30T07:33:47;17.50;99.90
39371;DHT22;25099;51.946;4.838;2023-07-30T07:36:12;17.50;99.90
39371;DHT22;25099;51.946;4.838;2023-07-30T07:38:39;17.50;99.90
39371;DHT22;25099;51.946;4.838;2023-07-30T07:41:23;17.50;99.90
39371;DHT22;25099;51.946;4.838;2023-07-30T07:43:49;17.60;99.90
39371;DHT22;25099;51.946;4.838;2023-07-30T07:46:15;17.60;99.90
39371;DHT22;25099;51.946;4.838;2023-07-30T07:48:41;17.90;99.90
39371;DHT22;25099;51.946;4.838;2023-07-30T07:51:27;18.00;99.90
39371;DHT22;25099;51.946;4.838;2023-07-30T07:53:53;18.50;99.90
39371;DHT22;25099;51.946;4.838;2023-07-30T07:56:18;17.80;99.90
39371;DHT22;25099;51.946;4.838;2023-07-30T07:58:47;17.80;99.90
39371;DHT22;25099;51.946;4.838;2023-07-30T08:01:12;18.60;99.90
39371;DHT22;25099;51.946;4.838;2023-07-30T08:03:38;18.50;99.90
39371;DHT22;25099;51.946;4.838;2023-07-30T08:06:05;17.90;99.90
39371;DHT22;25099;51.946;4.838;2023-07-30T08:08:30;18.40;99.90
39371;DHT22;25099;51.946;4.838;2023-07-30T08:10:56;18.00;99.90
39371;DHT22;25099;51.946;4.838;2023-07-30T08:13:21;18.00;99.90
39371;DHT22;25099;51.946;4.838;2023-07-30T08:15:48;18.20;99.90
39371;DHT22;25099;51.946;4.838;2023-07-30T08:18:13;18.00;99.90
39371;DHT22;25099;51.946;4.838;2023-07-30T08:20:39;18.60;99.90
39371;DHT22;25099;51.946;4.838;2023-07-30T08:23:04;18.10;99.90
39371;DHT22;25099;51.946;4.838;2023-07-30T08:25:30;18.10;99.90
39371;DHT22;25099;51.946;4.838;2023-07-30T08:27:55;18.10;99.90
39371;DHT22;25099;51.946;4.838;2023-07-30T08:30:21;18.10;99.90
39371;DHT22;25099;51.946;4.838;2023-07-30T08:32:46;18.20;99.90
39371;DHT22;25099;51.946;4.838;2023-07-30T08:35:12;18.20;99.90
39371;DHT22;25099;51.946;4.838;2023-07-30T08:37:38;18.20;99.90
39371;DHT22;25099;51.946;4.838;2023-07-30T08:40:04;18.20;99.90
39371;DHT22;25099;51.946;4.838;2023-07-30T08:42:30;18.20;99.90
39371;DHT22;25099;51.946;4.838;2023-07-30T08:44:56;18.20;99.90
39371;DHT22;25099;51.946;4.838;2023-07-30T08:47:22;18.20;99.90
39371;DHT22;25099;51.946;4.838;2023-07-30T08:49:47;18.20;99.90
39371;DHT22;25099;51.946;4.838;2023-07-30T08:52:13;18.20;99.90
39371;DHT22;25099;51.946;4.838;2023-07-30T08:54:48;18.40;99.90
39371;DHT22;25099;51.946;4.838;2023-07-30T08:57:30;18.20;99.90
39371;DHT22;25099;51.946;4.838;2023-07-30T09:00:04;18.90;99.90
39371;DHT22;25099;51.946;4.838;2023-07-30T09:02:48;18.20;99.90
39371;DHT22;25099;51.946;4.838;2023-07-30T09:05:15;18.70;99.90
39371;DHT22;25099;51.946;4.838;2023-07-30T09:07:41;18.30;99.90
39371;DHT22;25099;51.946;4.838;2023-07-30T09:10:07;18.30;99.90
39371;DHT22;25099;51.946;4.838;2023-07-30T09:12:36;18.30;99.90
39371;DHT22;25099;51.946;4.838;2023-07-30T09:15:06;18.30;99.90
39371;DHT22;25099;51.946;4.838;2023-07-30T09:17:37;18.40;99.90
39371;DHT22;25099;51.946;4.838;2023-07-30T09:20:10;18.50;99.90
39371;DHT22;25099;51.946;4.838;2023-07-30T09:22:44;18.50;99.90
39371;DHT22;25099;51.946;4.838;2023-07-30T09:25:14;18.60;99.90
39371;DHT22;25099;51.946;4.838;2023-07-30T09:27:41;18.60;99.90
39371;DHT22;25099;51.946;4.838;2023-07-30T09:30:07;19.00;99.90
39371;DHT22;25099;51.946;4.838;2023-07-30T09:32:34;18.70;99.90
39371;DHT22;25099;51.946;4.838;2023-07-30T09:35:13;19.50;99.90
39371;DHT22;25099;51.946;4.838;2023-07-30T09:37:40;18.80;99.90
39371;DHT22;25099;51.946;4.838;2023-07-30T09:40:18;18.90;99.90
39371;DHT22;25099;51.946;4.838;2023-07-30T09:42:46;18.70;99.90
39371;DHT22;25099;51.946;4.838;2023-07-30T09:45:25;18.60;99.90
39371;DHT22;25099;51.946;4.838;2023-07-30T09:47:58;18.50;99.90
39371;DHT22;25099;51.946;4.838;2023-07-30T09:50:45;18.40;99.90
39371;DHT22;25099;51.946;4.838;2023-07-30T09:53:15;18.40;99.90
39371;DHT22;25099;51.946;4.838;2023-07-30T09:55:42;18.50;99.90
39371;DHT22;25099;51.946;4.838;2023-07-30T09:58:13;18.30;99.90
39371;DHT22;25099;51.946;4.838;2023-07-30T10:00:42;18.30;99.90
39371;DHT22;25099;51.946;4.838;2023-07-30T10:03:18;18.40;99.90
39371;DHT22;25099;51.946;4.838;2023-07-30T10:05:50;18.30;99.90
39371;DHT22;25099;51.946;4.838;2023-07-30T10:08:24;18.40;99.90
39371;DHT22;25099;51.946;4.838;2023-07-30T10:10:54;18.50;99.90
39371;DHT22;25099;51.946;4.838;2023-07-30T10:13:27;18.50;99.90
39371;DHT22;25099;51.946;4.838;2023-07-30T10:16:01;18.60;99.90
39371;DHT22;25099;51.946;4.838;2023-07-30T10:18:40;18.60;99.90
39371;DHT22;25099;51.946;4.838;2023-07-30T10:21:11;18.80;99.90
39371;DHT22;25099;51.946;4.838;2023-07-30T10:23:57;18.80;99.90
39371;DHT22;25099;51.946;4.838;2023-07-30T10:26:35;18.90;99.90
39371;DHT22;25099;51.946;4.838;2023-07-30T10:29:18;19.00;99.90
39371;DHT22;25099;51.946;4.838;2023-07-30T10:31:55;19.10;99.90
39371;DHT22;25099;51.946;4.838;2023-07-30T10:34:28;19.00;99.90
39371;DHT22;25099;51.946;4.838;2023-07-30T10:37:08;19.10;99.90
39371;DHT22;25099;51.946;4.838;2023-07-30T10:39:34;20.10;99.90
39371;DHT22;25099;51.946;4.838;2023-07-30T10:42:00;19.20;99.90
39371;DHT22;25099;51.946;4.838;2023-07-30T10:44:30;19.20;99.90
39371;DHT22;25099;51.946;4.838;2023-07-30T10:46:57;19.20;99.90
39371;DHT22;25099;51.946;4.838;2023-07-30T10:49:24;19.20;99.90
39371;DHT22;25099;51.946;4.838;2023-07-30T10:51:52;19.20;99.90
39371;DHT22;25099;51.946;4.838;2023-07-30T10:54:18;19.30;99.90
39371;DHT22;25099;51.946;4.838;2023-07-30T10:56:44;19.30;99.90
39371;DHT22;25099;51.946;4.838;2023-07-30T10:59:11;19.30;99.90
39371;DHT22;25099;51.946;4.838;2023-07-30T11:01:38;19.20;99.90
39371;DHT22;25099;51.946;4.838;2023-07-30T11:04:16;19.10;99.90
39371;DHT22;25099;51.946;4.838;2023-07-30T11:06:49;19.00;99.90
39371;DHT22;25099;51.946;4.838;2023-07-30T11:09:33;19.00;99.90
39371;DHT22;25099;51.946;4.838;2023-07-30T11:11:59;19.00;99.90
39371;DHT22;25099;51.946;4.838;2023-07-30T11:14:25;19.00;99.90
39371;DHT22;25099;51.946;4.838;2023-07-30T11:17:11;19.00;99.90
39371;DHT22;25099;51.946;4.838;2023-07-30T11:19:51;19.00;99.90
39371;DHT22;25099;51.946;4.838;2023-07-30T11:22:32;19.00;99.90
39371;DHT22;25099;51.946;4.838;2023-07-30T11:24:58;19.00;99.90
39371;DHT22;25099;51.946;4.838;2023-07-30T11:27:24;19.00;99.90
39371;DHT22;25099;51.946;4.838;2023-07-30T11:29:58;19.00;99.90
39371;DHT22;25099;51.946;4.838;2023-07-30T11:32:42;19.20;99.90
39371;DHT22;25099;51.946;4.838;2023-07-30T11:35:11;19.00;99.90
39371;DHT22;25099;51.946;4.838;2023-07-30T11:37:39;19.10;99.90
39371;DHT22;25099;51.946;4.838;2023-07-30T11:40:14;19.30;99.90
39371;DHT22;25099;51.946;4.838;2023-07-30T11:42:40;19.20;99.90
39371;DHT22;25099;51.946;4.838;2023-07-30T11:45:21;19.40;99.90
39371;DHT22;25099;51.946;4.838;2023-07-30T11:47:48;19.20;99.90
39371;DHT22;25099;51.946;4.838;2023-07-30T11:50:14;19.20;99.90
39371;DHT22;25099;51.946;4.838;2023-07-30T11:52:53;19.20;99.90
39371;DHT22;25099;51.946;4.838;2023-07-30T11:55:19;19.30;99.90
39371;DHT22;25099;51.946;4.838;2023-07-30T11:57:45;19.30;99.90
39371;DHT22;25099;51.946;4.838;2023-07-30T12:00:11;19.30;99.90
39371;DHT22;25099;51.946;4.838;2023-07-30T12:02:38;19.30;99.90
39371;DHT22;25099;51.946;4.838;2023-07-30T12:05:04;19.80;99.90
39371;DHT22;25099;51.946;4.838;2023-07-30T12:07:32;19.30;99.90
39371;DHT22;25099;51.946;4.838;2023-07-30T12:10:11;20.20;99.90
39371;DHT22;25099;51.946;4.838;2023-07-30T12:12:45;19.40;99.90
39371;DHT22;25099;51.946;4.838;2023-07-30T12:15:11;19.50;99.90
39371;DHT22;25099;51.946;4.838;2023-07-30T12:17:38;19.90;99.90
39371;DHT22;25099;51.946;4.838;2023-07-30T12:20:11;19.30;99.90
39371;DHT22;25099;51.946;4.838;2023-07-30T12:23:01;19.30;99.90
39371;DHT22;25099;51.946;4.838;2023-07-30T12:25:27;19.30;99.90
39371;DHT22;25099;51.946;4.838;2023-07-30T12:27:52;19.90;99.90
39371;DHT22;25099;51.946;4.838;2023-07-30T12:30:18;19.70;99.90
39371;DHT22;25099;51.946;4.838;2023-07-30T12:32:43;19.40;99.90
39371;DHT22;25099;51.946;4.838;2023-07-30T12:35:09;19.50;99.90
39371;DHT22;25099;51.946;4.838;2023-07-30T12:37:34;19.60;99.90
39371;DHT22;25099;51.946;4.838;2023-07-30T12:40:02;19.70;99.90
39371;DHT22;25099;51.946;4.838;2023-07-30T12:42:28;19.70;99.90
39371;DHT22;25099;51.946;4.838;2023-07-30T12:44:54;19.80;99.90
39371;DHT22;25099;51.946;4.838;2023-07-30T12:47:19;19.80;99.90
39371;DHT22;25099;51.946;4.838;2023-07-30T12:49:45;19.80;99.90
39371;DHT22;25099;51.946;4.838;2023-07-30T12:52:10;19.90;99.90
39371;DHT22;25099;51.946;4.838;2023-07-30T12:54:36;20.00;99.90
39371;DHT22;25099;51.946;4.838;2023-07-30T12:57:01;20.00;99.90
39371;DHT22;25099;51.946;4.838;2023-07-30T12:59:28;19.90;99.90
39371;DHT22;25099;51.946;4.838;2023-07-30T13:01:53;20.00;99.90
39371;DHT22;25099;51.946;4.838;2023-07-30T13:04:21;20.00;99.90
39371;DHT22;25099;51.946;4.838;2023-07-30T13:06:46;20.00;99.90
39371;DHT22;25099;51.946;4.838;2023-07-30T13:09:12;20.00;99.90
39371;DHT22;25099;51.946;4.838;2023-07-30T13:11:37;20.50;99.90
39371;DHT22;25099;51.946;4.838;2023-07-30T13:14:03;20.20;99.90
39371;DHT22;25099;51.946;4.838;2023-07-30T13:16:29;20.20;99.90
39371;DHT22;25099;51.946;4.838;2023-07-30T13:18:56;20.40;99.90
39371;DHT22;25099;51.946;4.838;2023-07-30T13:21:22;20.30;99.90
39371;DHT22;25099;51.946;4.838;2023-07-30T13:23:48;20.40;99.90
39371;DHT22;25099;51.946;4.838;2023-07-30T13:26:14;20.30;99.90
39371;DHT22;25099;51.946;4.838;2023-07-30T13:28:39;20.80;99.90
39371;DHT22;25099;51.946;4.838;2023-07-30T13:31:05;20.20;99.90
39371;DHT22;25099;51.946;4.838;2023-07-30T13:33:30;20.20;99.90
39371;DHT22;25099;51.946;4.838;2023-07-30T13:35:56;20.30;99.90
39371;DHT22;25099;51.946;4.838;2023-07-30T13:38:21;20.40;99.90
39371;DHT22;25099;51.946;4.838;2023-07-30T13:40:48;20.30;99.90
39371;DHT22;25099;51.946;4.838;2023-07-30T13:43:13;20.80;99.90
39371;DHT22;25099;51.946;4.838;2023-07-30T13:45:39;20.40;99.90
39371;DHT22;25099;51.946;4.838;2023-07-30T13:48:04;20.50;99.90
39371;DHT22;25099;51.946;4.838;2023-07-30T13:50:30;20.60;99.90
39371;DHT22;25099;51.946;4.838;2023-07-30T13:52:56;20.50;99.90
39371;DHT22;25099;51.946;4.838;2023-07-30T13:55:22;20.60;99.90
39371;DHT22;25099;51.946;4.838;2023-07-30T13:57:50;20.50;99.90
39371;DHT22;25099;51.946;4.838;2023-07-30T14:03:00;20.40;99.90
39371;DHT22;25099;51.946;4.838;2023-07-30T14:05:26;20.40;99.90
39371;DHT22;25099;51.946;4.838;2023-07-30T14:07:54;20.30;99.90
39371;DHT22;25099;51.946;4.838;2023-07-30T14:10:22;20.30;99.90
39371;DHT22;25099;51.946;4.838;2023-07-30T14:13:00;20.40;99.90
39371;DHT22;25099;51.946;4.838;2023-07-30T14:15:38;20.50;99.90
39371;DHT22;25099;51.946;4.838;2023-07-30T14:18:10;20.60;99.90
39371;DHT22;25099;51.946;4.838;2023-07-30T14:23:18;20.70;99.90
39371;DHT22;25099;51.946;4.838;2023-07-30T14:25:46;20.70;99.90
39371;DHT22;25099;51.946;4.838;2023-07-30T14:28:12;20.70;99.90
39371;DHT22;25099;51.946;4.838;2023-07-30T14:30:39;20.70;99.90
39371;DHT22;25099;51.946;4.838;2023-07-30T14:33:12;19.10;99.90
39371;DHT22;25099;51.946;4.838;2023-07-30T14:35:50;20.10;99.90
39371;DHT22;25099;51.946;4.838;2023-07-30T14:38:22;20.40;99.90
39371;DHT22;25099;51.946;4.838;2023-07-30T14:41:26;20.30;99.90
39371;DHT22;25099;51.946;4.838;2023-07-30T14:44:10;19.90;99.90
39371;DHT22;25099;51.946;4.838;2023-07-30T14:46:35;20.30;99.90
39371;DHT22;25099;51.946;4.838;2023-07-30T14:49:07;20.20;99.90
39371;DHT22;25099;51.946;4.838;2023-07-30T14:51:44;20.20;99.90
39371;DHT22;25099;51.946;4.838;2023-07-30T14:54:25;20.20;99.90
39371;DHT22;25099;51.946;4.838;2023-07-30T14:56:57;20.60;99.90
39371;DHT22;25099;51.946;4.838;2023-07-30T14:59:28;20.50;99.90
39371;DHT22;25099;51.946;4.838;2023-07-30T15:02:01;20.10;99.90
39371;DHT22;25099;51.946;4.838;2023-07-30T15:04:44;20.60;99.90
39371;DHT22;25099;51.946;4.838;2023-07-30T15:07:20;20.10;99.90
39371;DHT22;25099;51.946;4.838;2023-07-30T15:09:51;20.70;99.90
39371;DHT22;25099;51.946;4.838;2023-07-30T15:12:20;20.30;99.90
39371;DHT22;25099;51.946;4.838;2023-07-30T15:14:49;19.90;99.90
39371;DHT22;25099;51.946;4.838;2023-07-30T15:17:23;20.80;99.90
39371;DHT22;25099;51.946;4.838;2023-07-30T15:19:54;19.90;99.90
39371;DHT22;25099;51.946;4.838;2023-07-30T15:22:30;19.80;99.90
39371;DHT22;25099;51.946;4.838;2023-07-30T15:25:07;19.90;99.90
39371;DHT22;25099;51.946;4.838;2023-07-30T15:27:36;19.90;99.90
39371;DHT22;25099;51.946;4.838;2023-07-30T15:30:08;19.90;99.90
39371;DHT22;25099;51.946;4.838;2023-07-30T15:32:49;19.90;99.90
39371;DHT22;25099;51.946;4.838;2023-07-30T15:35:18;19.80;99.90
39371;DHT22;25099;51.946;4.838;2023-07-30T15:37:55;20.10;99.90
39371;DHT22;25099;51.946;4.838;2023-07-30T15:40:37;19.80;99.90